sensor_id;sensor_type;location;lat;lon;timestamp;P1;durP1;ratioP1;P2;durP2;ratioP2
25015;SDS011;13029;46.286;7.488;2023-05-15T00:02:11;1.10;;;1.00;;
25015;SDS011;13029;46.286;7.488;2023-05-15T00:04:37;1.20;;;1.10;;
25015;SDS011;13029;46.286;7.488;2023-05-15T00:07:02;1.35;;;1.25;;
25015;SDS011;13029;46.286;7.488;2023-05-15T00:09:27;1.50;;;1.10;;
25015;SDS011;13029;46.286;7.488;2023-05-15T00:11:53;3.33;;;1.80;;
25015;SDS011;13029;46.286;7.488;2023-05-15T00:14:18;1.70;;;1.60;;
25015;SDS011;13029;46.286;7.488;2023-05-15T00:16:43;1.58;;;1.17;;
25015;SDS011;13029;46.286;7.488;2023-05-15T00:19:09;1.58;;;1.45;;
25015;SDS011;13029;46.286;7.488;2023-05-15T00:21:34;1.60;;;1.15;;
25015;SDS011;13029;46.286;7.488;2023-05-15T00:23:59;2.05;;;1.27;;
25015;SDS011;13029;46.286;7.488;2023-05-15T00:26:25;1.40;;;1.25;;
25015;SDS011;13029;46.286;7.488;2023-05-15T00:28:50;2.00;;;1.75;;
25015;SDS011;13029;46.286;7.488;2023-05-15T00:31:16;2.05;;;1.27;;
25015;SDS011;13029;46.286;7.488;2023-05-15T00:33:41;2.03;;;1.35;;
25015;SDS011;13029;46.286;7.488;2023-05-15T00:36:07;1.10;;;1.00;;
25015;SDS011;13029;46.286;7.488;2023-05-15T00:38:32;1.30;;;1.20;;
25015;SDS011;13029;46.286;7.488;2023-05-15T00:40:58;2.72;;;1.00;;
25015;SDS011;13029;46.286;7.488;2023-05-15T00:43:24;1.70;;;1.50;;
25015;SDS011;13029;46.286;7.488;2023-05-15T00:45:50;1.60;;;1.45;;
25015;SDS011;13029;46.286;7.488;2023-05-15T00:48:16;3.33;;;1.40;;
25015;SDS011;13029;46.286;7.488;2023-05-15T00:50:42;2.72;;;1.45;;
25015;SDS011;13029;46.286;7.488;2023-05-15T00:53:07;1.33;;;1.23;;
25015;SDS011;13029;46.286;7.488;2023-05-15T00:55:33;1.52;;;1.20;;
25015;SDS011;13029;46.286;7.488;2023-05-15T00:57:59;1.75;;;1.27;;
25015;SDS011;13029;46.286;7.488;2023-05-15T01:00:25;1.98;;;1.30;;
25015;SDS011;13029;46.286;7.488;2023-05-15T01:02:52;1.10;;;1.00;;
25015;SDS011;13029;46.286;7.488;2023-05-15T01:05:18;1.50;;;1.40;;
25015;SDS011;13029;46.286;7.488;2023-05-15T01:07:47;3.13;;;1.38;;
25015;SDS011;13029;46.286;7.488;2023-05-15T01:10:15;1.25;;;1.15;;
25015;SDS011;13029;46.286;7.488;2023-05-15T01:12:41;1.50;;;1.30;;
25015;SDS011;13029;46.286;7.488;2023-05-15T01:15:08;4.55;;;1.50;;
25015;SDS011;13029;46.286;7.488;2023-05-15T01:17:33;1.52;;;1.42;;
25015;SDS011;13029;46.286;7.488;2023-05-15T01:19:59;1.20;;;1.10;;
25015;SDS011;13029;46.286;7.488;2023-05-15T01:27:55;2.10;;;1.30;;
25015;SDS011;13029;46.286;7.488;2023-05-15T01:35:38;2.03;;;1.40;;
25015;SDS011;13029;46.286;7.488;2023-05-15T01:40:46;2.03;;;1.20;;
25015;SDS011;13029;46.286;7.488;2023-05-15T01:43:14;1.50;;;1.20;;
25015;SDS011;13029;46.286;7.488;2023-05-15T01:45:43;2.30;;;1.20;;
25015;SDS011;13029;46.286;7.488;2023-05-15T01:48:08;3.60;;;1.50;;
25015;SDS011;13029;46.286;7.488;2023-05-15T01:50:34;1.92;;;1.55;;
25015;SDS011;13029;46.286;7.488;2023-05-15T01:53:02;2.38;;;1.40;;
25015;SDS011;13029;46.286;7.488;2023-05-15T01:55:29;2.38;;;1.48;;
25015;SDS011;13029;46.286;7.488;2023-05-15T01:57:55;2.08;;;1.50;;
25015;SDS011;13029;46.286;7.488;2023-05-15T02:00:24;3.05;;;1.55;;
25015;SDS011;13029;46.286;7.488;2023-05-15T02:02:49;4.32;;;1.60;;
25015;SDS011;13029;46.286;7.488;2023-05-15T02:05:15;1.73;;;1.42;;
25015;SDS011;13029;46.286;7.488;2023-05-15T02:07:41;1.58;;;1.40;;
25015;SDS011;13029;46.286;7.488;2023-05-15T02:10:07;1.75;;;1.40;;
25015;SDS011;13029;46.286;7.488;2023-05-15T02:12:34;1.70;;;1.60;;
25015;SDS011;13029;46.286;7.488;2023-05-15T02:14:59;1.50;;;1.40;;
25015;SDS011;13029;46.286;7.488;2023-05-15T02:17:27;1.50;;;1.40;;
25015;SDS011;13029;46.286;7.488;2023-05-15T02:19:53;1.88;;;1.70;;
25015;SDS011;13029;46.286;7.488;2023-05-15T02:22:18;2.92;;;1.60;;
25015;SDS011;13029;46.286;7.488;2023-05-15T02:24:44;1.65;;;1.20;;
25015;SDS011;13029;46.286;7.488;2023-05-15T02:27:12;1.95;;;1.70;;
25015;SDS011;13029;46.286;7.488;2023-05-15T02:37:45;1.50;;;1.10;;
25015;SDS011;13029;46.286;7.488;2023-05-15T02:40:12;3.35;;;1.67;;
25015;SDS011;13029;46.286;7.488;2023-05-15T02:42:38;2.33;;;1.58;;
25015;SDS011;13029;46.286;7.488;2023-05-15T02:45:04;1.50;;;1.40;;
25015;SDS011;13029;46.286;7.488;2023-05-15T02:47:32;3.30;;;1.50;;
25015;SDS011;13029;46.286;7.488;2023-05-15T02:49:58;1.50;;;1.40;;
25015;SDS011;13029;46.286;7.488;2023-05-15T02:52:23;2.33;;;1.60;;
25015;SDS011;13029;46.286;7.488;2023-05-15T02:54:49;1.58;;;1.38;;
25015;SDS011;13029;46.286;7.488;2023-05-15T02:57:14;2.60;;;1.67;;
25015;SDS011;13029;46.286;7.488;2023-05-15T02:59:40;1.77;;;1.63;;
25015;SDS011;13029;46.286;7.488;2023-05-15T03:02:05;1.95;;;1.85;;
25015;SDS011;13029;46.286;7.488;2023-05-15T03:04:30;2.10;;;1.77;;
25015;SDS011;13029;46.286;7.488;2023-05-15T03:06:56;2.88;;;1.65;;
25015;SDS011;13029;46.286;7.488;2023-05-15T03:09:21;1.50;;;1.40;;
25015;SDS011;13029;46.286;7.488;2023-05-15T03:11:46;2.03;;;1.70;;
25015;SDS011;13029;46.286;7.488;2023-05-15T03:14:12;1.75;;;1.35;;
25015;SDS011;13029;46.286;7.488;2023-05-15T03:16:37;2.50;;;1.48;;
25015;SDS011;13029;46.286;7.488;2023-05-15T03:19:02;1.88;;;1.60;;
25015;SDS011;13029;46.286;7.488;2023-05-15T03:21:28;2.60;;;1.60;;
25015;SDS011;13029;46.286;7.488;2023-05-15T03:23:53;1.45;;;1.35;;
25015;SDS011;13029;46.286;7.488;2023-05-15T03:26:20;1.92;;;1.40;;
25015;SDS011;13029;46.286;7.488;2023-05-15T03:28:45;1.60;;;1.50;;
25015;SDS011;13029;46.286;7.488;2023-05-15T03:31:10;4.43;;;1.52;;
25015;SDS011;13029;46.286;7.488;2023-05-15T03:33:36;1.65;;;1.50;;
25015;SDS011;13029;46.286;7.488;2023-05-15T03:36:02;1.70;;;1.60;;
25015;SDS011;13029;46.286;7.488;2023-05-15T03:38:27;13.13;;;1.67;;
25015;SDS011;13029;46.286;7.488;2023-05-15T03:40:52;1.95;;;1.58;;
25015;SDS011;13029;46.286;7.488;2023-05-15T03:43:18;1.70;;;1.60;;
25015;SDS011;13029;46.286;7.488;2023-05-15T03:45:43;2.30;;;1.80;;
25015;SDS011;13029;46.286;7.488;2023-05-15T03:48:08;1.67;;;1.52;;
25015;SDS011;13029;46.286;7.488;2023-05-15T03:50:34;1.90;;;1.65;;
25015;SDS011;13029;46.286;7.488;2023-05-15T03:52:59;2.13;;;1.80;;
25015;SDS011;13029;46.286;7.488;2023-05-15T03:55:25;2.08;;;1.83;;
25015;SDS011;13029;46.286;7.488;2023-05-15T03:57:50;2.35;;;1.60;;
25015;SDS011;13029;46.286;7.488;2023-05-15T04:00:15;2.38;;;1.73;;
25015;SDS011;13029;46.286;7.488;2023-05-15T04:02:41;1.98;;;1.77;;
25015;SDS011;13029;46.286;7.488;2023-05-15T04:05:07;3.72;;;1.70;;
25015;SDS011;13029;46.286;7.488;2023-05-15T04:07:33;2.85;;;2.00;;
25015;SDS011;13029;46.286;7.488;2023-05-15T04:09:58;2.63;;;1.80;;
25015;SDS011;13029;46.286;7.488;2023-05-15T04:12:26;2.42;;;1.73;;
25015;SDS011;13029;46.286;7.488;2023-05-15T04:14:57;1.88;;;1.77;;
25015;SDS011;13029;46.286;7.488;2023-05-15T04:17:24;1.42;;;1.30;;
25015;SDS011;13029;46.286;7.488;2023-05-15T04:19:49;1.80;;;1.60;;
25015;SDS011;13029;46.286;7.488;2023-05-15T04:22:14;3.28;;;1.98;;
25015;SDS011;13029;46.286;7.488;2023-05-15T04:24:40;1.70;;;1.60;;
25015;SDS011;13029;46.286;7.488;2023-05-15T04:27:05;3.72;;;1.65;;
25015;SDS011;13029;46.286;7.488;2023-05-15T04:29:31;2.45;;;1.80;;
25015;SDS011;13029;46.286;7.488;2023-05-15T04:31:56;3.20;;;1.80;;
25015;SDS011;13029;46.286;7.488;2023-05-15T04:34:21;1.92;;;1.58;;
25015;SDS011;13029;46.286;7.488;2023-05-15T04:36:46;1.88;;;1.67;;
25015;SDS011;13029;46.286;7.488;2023-05-15T04:39:12;5.28;;;3.15;;
25015;SDS011;13029;46.286;7.488;2023-05-15T04:41:37;2.45;;;1.70;;
25015;SDS011;13029;46.286;7.488;2023-05-15T04:44:03;2.40;;;1.70;;
25015;SDS011;13029;46.286;7.488;2023-05-15T04:46:28;1.67;;;1.35;;
25015;SDS011;13029;46.286;7.488;2023-05-15T04:48:53;6.65;;;1.80;;
25015;SDS011;13029;46.286;7.488;2023-05-15T04:51:18;1.98;;;1.40;;
25015;SDS011;13029;46.286;7.488;2023-05-15T04:53:44;1.50;;;1.35;;
25015;SDS011;13029;46.286;7.488;2023-05-15T04:56:09;2.00;;;1.75;;
25015;SDS011;13029;46.286;7.488;2023-05-15T04:58:35;4.72;;;1.80;;
25015;SDS011;13029;46.286;7.488;2023-05-15T05:01:00;3.20;;;1.70;;
25015;SDS011;13029;46.286;7.488;2023-05-15T05:03:25;4.05;;;1.58;;
25015;SDS011;13029;46.286;7.488;2023-05-15T05:05:51;2.78;;;1.70;;
25015;SDS011;13029;46.286;7.488;2023-05-15T05:08:16;2.65;;;2.17;;
25015;SDS011;13029;46.286;7.488;2023-05-15T05:10:41;1.90;;;1.67;;
25015;SDS011;13029;46.286;7.488;2023-05-15T05:13:07;2.03;;;1.90;;
25015;SDS011;13029;46.286;7.488;2023-05-15T05:15:32;2.47;;;2.05;;
25015;SDS011;13029;46.286;7.488;2023-05-15T05:17:57;2.20;;;1.92;;
25015;SDS011;13029;46.286;7.488;2023-05-15T05:20:23;2.47;;;2.00;;
25015;SDS011;13029;46.286;7.488;2023-05-15T05:22:48;1.85;;;1.65;;
25015;SDS011;13029;46.286;7.488;2023-05-15T05:25:13;2.00;;;1.65;;
25015;SDS011;13029;46.286;7.488;2023-05-15T05:27:39;2.53;;;2.00;;
25015;SDS011;13029;46.286;7.488;2023-05-15T05:30:04;2.58;;;1.95;;
25015;SDS011;13029;46.286;7.488;2023-05-15T05:32:30;3.92;;;1.88;;
25015;SDS011;13029;46.286;7.488;2023-05-15T05:34:55;3.03;;;1.90;;
25015;SDS011;13029;46.286;7.488;2023-05-15T05:37:20;2.42;;;1.75;;
25015;SDS011;13029;46.286;7.488;2023-05-15T05:39:46;2.58;;;2.17;;
25015;SDS011;13029;46.286;7.488;2023-05-15T05:42:11;3.33;;;2.30;;
25015;SDS011;13029;46.286;7.488;2023-05-15T05:44:36;2.28;;;1.95;;
25015;SDS011;13029;46.286;7.488;2023-05-15T05:47:02;2.58;;;2.08;;
25015;SDS011;13029;46.286;7.488;2023-05-15T05:49:27;3.40;;;2.17;;
25015;SDS011;13029;46.286;7.488;2023-05-15T05:51:52;2.70;;;1.90;;
25015;SDS011;13029;46.286;7.488;2023-05-15T05:54:18;4.30;;;2.25;;
25015;SDS011;13029;46.286;7.488;2023-05-15T05:56:43;2.58;;;2.03;;
25015;SDS011;13029;46.286;7.488;2023-05-15T05:59:08;1.90;;;1.63;;
25015;SDS011;13029;46.286;7.488;2023-05-15T06:01:34;4.03;;;1.85;;
25015;SDS011;13029;46.286;7.488;2023-05-15T06:03:59;2.58;;;1.65;;
25015;SDS011;13029;46.286;7.488;2023-05-15T06:06:25;2.25;;;1.90;;
25015;SDS011;13029;46.286;7.488;2023-05-15T06:08:50;2.97;;;1.98;;
25015;SDS011;13029;46.286;7.488;2023-05-15T06:11:15;3.58;;;1.70;;
25015;SDS011;13029;46.286;7.488;2023-05-15T06:13:41;2.65;;;2.20;;
25015;SDS011;13029;46.286;7.488;2023-05-15T06:16:07;3.88;;;2.08;;
25015;SDS011;13029;46.286;7.488;2023-05-15T06:18:32;2.50;;;1.95;;
25015;SDS011;13029;46.286;7.488;2023-05-15T06:20:57;2.28;;;1.92;;
25015;SDS011;13029;46.286;7.488;2023-05-15T06:23:24;3.47;;;2.30;;
25015;SDS011;13029;46.286;7.488;2023-05-15T06:25:50;3.25;;;2.10;;
25015;SDS011;13029;46.286;7.488;2023-05-15T06:28:15;3.15;;;2.22;;
25015;SDS011;13029;46.286;7.488;2023-05-15T06:30:41;4.28;;;2.53;;
25015;SDS011;13029;46.286;7.488;2023-05-15T06:33:06;2.47;;;2.20;;
25015;SDS011;13029;46.286;7.488;2023-05-15T06:35:31;5.75;;;2.28;;
25015;SDS011;13029;46.286;7.488;2023-05-15T06:37:57;4.10;;;2.65;;
25015;SDS011;13029;46.286;7.488;2023-05-15T06:40:22;3.03;;;2.40;;
25015;SDS011;13029;46.286;7.488;2023-05-15T06:42:47;2.92;;;2.25;;
25015;SDS011;13029;46.286;7.488;2023-05-15T06:45:13;3.38;;;1.95;;
25015;SDS011;13029;46.286;7.488;2023-05-15T06:47:38;3.78;;;2.50;;
25015;SDS011;13029;46.286;7.488;2023-05-15T06:50:04;2.85;;;2.28;;
25015;SDS011;13029;46.286;7.488;2023-05-15T06:52:30;3.42;;;2.58;;
25015;SDS011;13029;46.286;7.488;2023-05-15T06:54:55;3.47;;;2.35;;
25015;SDS011;13029;46.286;7.488;2023-05-15T06:57:20;5.35;;;2.42;;
25015;SDS011;13029;46.286;7.488;2023-05-15T06:59:46;4.53;;;2.20;;
25015;SDS011;13029;46.286;7.488;2023-05-15T07:02:11;3.67;;;2.50;;
25015;SDS011;13029;46.286;7.488;2023-05-15T07:04:36;5.65;;;2.75;;
25015;SDS011;13029;46.286;7.488;2023-05-15T07:07:02;4.05;;;2.60;;
25015;SDS011;13029;46.286;7.488;2023-05-15T07:09:27;2.97;;;2.40;;
25015;SDS011;13029;46.286;7.488;2023-05-15T07:11:52;4.03;;;2.70;;
25015;SDS011;13029;46.286;7.488;2023-05-15T07:14:18;6.15;;;2.63;;
25015;SDS011;13029;46.286;7.488;2023-05-15T07:16:43;3.80;;;2.60;;
25015;SDS011;13029;46.286;7.488;2023-05-15T07:19:09;4.30;;;2.53;;
25015;SDS011;13029;46.286;7.488;2023-05-15T07:21:35;7.03;;;2.60;;
25015;SDS011;13029;46.286;7.488;2023-05-15T07:24:00;6.00;;;2.33;;
25015;SDS011;13029;46.286;7.488;2023-05-15T07:26:25;7.28;;;2.45;;
25015;SDS011;13029;46.286;7.488;2023-05-15T07:28:51;6.43;;;3.20;;
25015;SDS011;13029;46.286;7.488;2023-05-15T07:31:16;9.13;;;2.63;;
25015;SDS011;13029;46.286;7.488;2023-05-15T07:33:41;5.00;;;2.63;;
25015;SDS011;13029;46.286;7.488;2023-05-15T07:36:07;3.92;;;2.40;;
25015;SDS011;13029;46.286;7.488;2023-05-15T07:38:32;5.53;;;2.38;;
25015;SDS011;13029;46.286;7.488;2023-05-15T07:40:58;2.40;;;2.15;;
25015;SDS011;13029;46.286;7.488;2023-05-15T07:43:23;4.05;;;2.42;;
25015;SDS011;13029;46.286;7.488;2023-05-15T07:45:48;9.07;;;2.58;;
25015;SDS011;13029;46.286;7.488;2023-05-15T07:48:17;4.43;;;2.20;;
25015;SDS011;13029;46.286;7.488;2023-05-15T07:50:45;2.88;;;1.98;;
25015;SDS011;13029;46.286;7.488;2023-05-15T07:53:11;4.28;;;2.08;;
25015;SDS011;13029;46.286;7.488;2023-05-15T07:55:37;3.53;;;2.42;;
25015;SDS011;13029;46.286;7.488;2023-05-15T07:58:02;5.90;;;2.25;;
25015;SDS011;13029;46.286;7.488;2023-05-15T08:00:27;2.97;;;2.50;;
25015;SDS011;13029;46.286;7.488;2023-05-15T08:02:53;2.85;;;2.40;;
25015;SDS011;13029;46.286;7.488;2023-05-15T08:05:18;2.40;;;1.92;;
25015;SDS011;13029;46.286;7.488;2023-05-15T08:07:44;4.43;;;2.65;;
25015;SDS011;13029;46.286;7.488;2023-05-15T08:10:09;6.93;;;1.80;;
25015;SDS011;13029;46.286;7.488;2023-05-15T08:12:35;2.30;;;1.92;;
25015;SDS011;13029;46.286;7.488;2023-05-15T08:15:00;6.15;;;2.00;;
25015;SDS011;13029;46.286;7.488;2023-05-15T08:17:26;6.10;;;2.15;;
25015;SDS011;13029;46.286;7.488;2023-05-15T08:19:51;2.20;;;1.80;;
25015;SDS011;13029;46.286;7.488;2023-05-15T08:22:17;2.20;;;1.90;;
25015;SDS011;13029;46.286;7.488;2023-05-15T08:24:42;3.55;;;2.22;;
25015;SDS011;13029;46.286;7.488;2023-05-15T08:27:08;4.03;;;2.03;;
25015;SDS011;13029;46.286;7.488;2023-05-15T08:29:34;5.10;;;2.60;;
25015;SDS011;13029;46.286;7.488;2023-05-15T08:32:00;5.15;;;2.30;;
25015;SDS011;13029;46.286;7.488;2023-05-15T08:34:25;2.40;;;2.03;;
25015;SDS011;13029;46.286;7.488;2023-05-15T08:36:51;2.17;;;1.73;;
25015;SDS011;13029;46.286;7.488;2023-05-15T08:39:16;4.28;;;1.73;;
25015;SDS011;13029;46.286;7.488;2023-05-15T08:41:47;2.83;;;1.52;;
25015;SDS011;13029;46.286;7.488;2023-05-15T08:44:16;1.67;;;1.52;;
25015;SDS011;13029;46.286;7.488;2023-05-15T08:46:41;2.17;;;1.60;;
25015;SDS011;13029;46.286;7.488;2023-05-15T08:49:11;1.83;;;1.42;;
25015;SDS011;13029;46.286;7.488;2023-05-15T08:51:40;4.47;;;1.73;;
25015;SDS011;13029;46.286;7.488;2023-05-15T08:54:05;1.92;;;1.52;;
25015;SDS011;13029;46.286;7.488;2023-05-15T08:56:31;5.28;;;2.00;;
25015;SDS011;13029;46.286;7.488;2023-05-15T08:58:56;4.93;;;1.90;;
25015;SDS011;13029;46.286;7.488;2023-05-15T09:01:22;4.00;;;2.03;;
25015;SDS011;13029;46.286;7.488;2023-05-15T09:03:47;2.47;;;2.17;;
25015;SDS011;13029;46.286;7.488;2023-05-15T09:06:12;3.67;;;1.98;;
25015;SDS011;13029;46.286;7.488;2023-05-15T09:08:38;4.57;;;2.67;;
25015;SDS011;13029;46.286;7.488;2023-05-15T09:11:04;5.03;;;2.05;;
25015;SDS011;13029;46.286;7.488;2023-05-15T09:13:31;5.90;;;2.30;;
25015;SDS011;13029;46.286;7.488;2023-05-15T09:15:57;2.65;;;1.70;;
25015;SDS011;13029;46.286;7.488;2023-05-15T09:18:22;3.08;;;2.08;;
25015;SDS011;13029;46.286;7.488;2023-05-15T09:20:48;3.22;;;2.03;;
25015;SDS011;13029;46.286;7.488;2023-05-15T09:23:26;3.40;;;1.83;;
25015;SDS011;13029;46.286;7.488;2023-05-15T09:25:52;4.50;;;2.10;;
25015;SDS011;13029;46.286;7.488;2023-05-15T09:28:26;4.30;;;2.58;;
25015;SDS011;13029;46.286;7.488;2023-05-15T09:33:28;3.45;;;1.63;;
25015;SDS011;13029;46.286;7.488;2023-05-15T09:35:54;3.92;;;1.90;;
25015;SDS011;13029;46.286;7.488;2023-05-15T09:38:20;3.78;;;1.85;;
25015;SDS011;13029;46.286;7.488;2023-05-15T09:40:45;5.47;;;2.05;;
25015;SDS011;13029;46.286;7.488;2023-05-15T09:43:10;3.10;;;1.55;;
25015;SDS011;13029;46.286;7.488;2023-05-15T09:45:36;2.47;;;1.55;;
25015;SDS011;13029;46.286;7.488;2023-05-15T09:48:05;7.32;;;1.55;;
25015;SDS011;13029;46.286;7.488;2023-05-15T09:50:35;6.28;;;1.90;;
25015;SDS011;13029;46.286;7.488;2023-05-15T09:53:01;2.17;;;1.60;;
25015;SDS011;13029;46.286;7.488;2023-05-15T09:55:26;5.00;;;1.52;;
25015;SDS011;13029;46.286;7.488;2023-05-15T09:58:08;4.20;;;1.40;;
25015;SDS011;13029;46.286;7.488;2023-05-15T10:00:41;4.20;;;1.33;;
25015;SDS011;13029;46.286;7.488;2023-05-15T10:03:07;1.92;;;1.50;;
25015;SDS011;13029;46.286;7.488;2023-05-15T10:05:33;1.30;;;1.17;;
25015;SDS011;13029;46.286;7.488;2023-05-15T10:07:59;3.08;;;1.10;;
25015;SDS011;13029;46.286;7.488;2023-05-15T10:10:25;3.70;;;1.50;;
25015;SDS011;13029;46.286;7.488;2023-05-15T10:12:53;1.35;;;1.20;;
25015;SDS011;13029;46.286;7.488;2023-05-15T10:15:20;1.42;;;1.20;;
25015;SDS011;13029;46.286;7.488;2023-05-15T10:17:46;2.22;;;1.27;;
25015;SDS011;13029;46.286;7.488;2023-05-15T10:20:13;2.15;;;1.25;;
25015;SDS011;13029;46.286;7.488;2023-05-15T10:22:39;1.10;;;1.00;;
25015;SDS011;13029;46.286;7.488;2023-05-15T10:25:15;1.95;;;1.10;;
25015;SDS011;13029;46.286;7.488;2023-05-15T10:27:40;3.67;;;1.10;;
25015;SDS011;13029;46.286;7.488;2023-05-15T10:30:06;5.47;;;1.38;;
25015;SDS011;13029;46.286;7.488;2023-05-15T10:32:33;2.92;;;1.20;;
25015;SDS011;13029;46.286;7.488;2023-05-15T10:34:59;1.40;;;1.10;;
25015;SDS011;13029;46.286;7.488;2023-05-15T10:37:24;4.35;;;1.23;;
25015;SDS011;13029;46.286;7.488;2023-05-15T10:39:51;1.20;;;1.10;;
25015;SDS011;13029;46.286;7.488;2023-05-15T10:42:17;3.05;;;1.17;;
25015;SDS011;13029;46.286;7.488;2023-05-15T10:44:43;1.30;;;1.20;;
25015;SDS011;13029;46.286;7.488;2023-05-15T10:47:08;1.13;;;1.02;;
25015;SDS011;13029;46.286;7.488;2023-05-15T10:49:34;3.00;;;1.13;;
25015;SDS011;13029;46.286;7.488;2023-05-15T10:52:00;1.08;;;0.98;;
25015;SDS011;13029;46.286;7.488;2023-05-15T10:54:26;1.00;;;0.90;;
25015;SDS011;13029;46.286;7.488;2023-05-15T10:56:53;2.15;;;1.05;;
25015;SDS011;13029;46.286;7.488;2023-05-15T10:59:19;2.67;;;1.00;;
25015;SDS011;13029;46.286;7.488;2023-05-15T11:01:45;1.33;;;0.90;;
25015;SDS011;13029;46.286;7.488;2023-05-15T11:04:11;2.47;;;1.20;;
25015;SDS011;13029;46.286;7.488;2023-05-15T11:06:41;2.47;;;1.00;;
25015;SDS011;13029;46.286;7.488;2023-05-15T11:14:16;12.45;;;1.83;;
25015;SDS011;13029;46.286;7.488;2023-05-15T11:21:55;3.40;;;1.08;;
25015;SDS011;13029;46.286;7.488;2023-05-15T11:24:52;1.98;;;0.98;;
25015;SDS011;13029;46.286;7.488;2023-05-15T11:27:38;1.85;;;1.25;;
25015;SDS011;13029;46.286;7.488;2023-05-15T11:35:11;0.80;;;0.80;;
25015;SDS011;13029;46.286;7.488;2023-05-15T11:40:51;4.00;;;0.90;;
25015;SDS011;13029;46.286;7.488;2023-05-15T11:43:30;5.60;;;0.93;;
25015;SDS011;13029;46.286;7.488;2023-05-15T11:48:24;5.18;;;1.13;;
25015;SDS011;13029;46.286;7.488;2023-05-15T11:50:51;1.25;;;1.15;;
25015;SDS011;13029;46.286;7.488;2023-05-15T11:53:19;3.00;;;1.13;;
25015;SDS011;13029;46.286;7.488;2023-05-15T11:55:45;4.78;;;1.10;;
25015;SDS011;13029;46.286;7.488;2023-05-15T11:58:11;1.00;;;0.90;;
25015;SDS011;13029;46.286;7.488;2023-05-15T12:00:38;5.55;;;0.90;;
25015;SDS011;13029;46.286;7.488;2023-05-15T12:03:03;4.20;;;0.90;;
25015;SDS011;13029;46.286;7.488;2023-05-15T12:05:29;5.57;;;1.00;;
25015;SDS011;13029;46.286;7.488;2023-05-15T12:07:55;1.83;;;0.80;;
25015;SDS011;13029;46.286;7.488;2023-05-15T12:10:20;1.10;;;0.70;;
25015;SDS011;13029;46.286;7.488;2023-05-15T12:12:45;1.00;;;0.90;;
25015;SDS011;13029;46.286;7.488;2023-05-15T12:15:11;1.90;;;0.82;;
25015;SDS011;13029;46.286;7.488;2023-05-15T12:17:38;1.92;;;0.88;;
25015;SDS011;13029;46.286;7.488;2023-05-15T12:20:06;0.98;;;0.88;;
25015;SDS011;13029;46.286;7.488;2023-05-15T12:22:36;1.20;;;0.63;;
25015;SDS011;13029;46.286;7.488;2023-05-15T12:25:03;4.38;;;1.83;;
25015;SDS011;13029;46.286;7.488;2023-05-15T12:27:29;1.52;;;1.10;;
25015;SDS011;13029;46.286;7.488;2023-05-15T12:29:55;1.67;;;0.80;;
25015;SDS011;13029;46.286;7.488;2023-05-15T12:32:20;5.47;;;1.75;;
25015;SDS011;13029;46.286;7.488;2023-05-15T12:34:45;1.05;;;0.90;;
25015;SDS011;13029;46.286;7.488;2023-05-15T12:37:12;1.10;;;0.90;;
25015;SDS011;13029;46.286;7.488;2023-05-15T12:39:50;1.52;;;0.80;;
25015;SDS011;13029;46.286;7.488;2023-05-15T12:42:19;1.65;;;0.95;;
25015;SDS011;13029;46.286;7.488;2023-05-15T12:44:45;2.50;;;0.80;;
25015;SDS011;13029;46.286;7.488;2023-05-15T12:47:12;1.08;;;0.95;;
25015;SDS011;13029;46.286;7.488;2023-05-15T12:49:39;1.80;;;0.77;;
25015;SDS011;13029;46.286;7.488;2023-05-15T12:52:08;1.10;;;0.70;;
25015;SDS011;13029;46.286;7.488;2023-05-15T12:54:38;2.13;;;0.87;;
25015;SDS011;13029;46.286;7.488;2023-05-15T12:57:04;1.30;;;0.80;;
25015;SDS011;13029;46.286;7.488;2023-05-15T12:59:30;1.10;;;0.90;;
25015;SDS011;13029;46.286;7.488;2023-05-15T13:01:55;1.50;;;0.73;;
25015;SDS011;13029;46.286;7.488;2023-05-15T13:04:21;1.20;;;0.80;;
25015;SDS011;13029;46.286;7.488;2023-05-15T13:06:46;1.08;;;0.70;;
25015;SDS011;13029;46.286;7.488;2023-05-15T13:09:12;7.85;;;1.00;;
25015;SDS011;13029;46.286;7.488;2023-05-15T13:11:41;2.35;;;0.80;;
25015;SDS011;13029;46.286;7.488;2023-05-15T13:14:07;2.45;;;0.80;;
25015;SDS011;13029;46.286;7.488;2023-05-15T13:16:34;2.15;;;0.70;;
25015;SDS011;13029;46.286;7.488;2023-05-15T13:19:00;1.98;;;0.88;;
25015;SDS011;13029;46.286;7.488;2023-05-15T13:21:25;2.17;;;0.80;;
25015;SDS011;13029;46.286;7.488;2023-05-15T13:23:51;3.65;;;1.00;;
25015;SDS011;13029;46.286;7.488;2023-05-15T13:26:16;1.10;;;0.75;;
25015;SDS011;13029;46.286;7.488;2023-05-15T13:28:41;1.17;;;1.08;;
25015;SDS011;13029;46.286;7.488;2023-05-15T13:31:07;1.45;;;0.88;;
25015;SDS011;13029;46.286;7.488;2023-05-15T13:33:32;5.13;;;1.38;;
25015;SDS011;13029;46.286;7.488;2023-05-15T13:35:59;1.60;;;0.93;;
25015;SDS011;13029;46.286;7.488;2023-05-15T13:38:25;2.35;;;0.80;;
25015;SDS011;13029;46.286;7.488;2023-05-15T13:40:50;1.20;;;0.80;;
25015;SDS011;13029;46.286;7.488;2023-05-15T13:43:15;1.13;;;0.80;;
25015;SDS011;13029;46.286;7.488;2023-05-15T13:45:41;1.25;;;0.80;;
25015;SDS011;13029;46.286;7.488;2023-05-15T13:48:06;0.98;;;0.88;;
25015;SDS011;13029;46.286;7.488;2023-05-15T13:50:31;2.47;;;1.10;;
25015;SDS011;13029;46.286;7.488;2023-05-15T13:52:57;1.58;;;0.90;;
25015;SDS011;13029;46.286;7.488;2023-05-15T13:55:22;2.55;;;0.93;;
25015;SDS011;13029;46.286;7.488;2023-05-15T13:57:49;1.40;;;0.95;;
25015;SDS011;13029;46.286;7.488;2023-05-15T14:00:16;3.50;;;0.93;;
25015;SDS011;13029;46.286;7.488;2023-05-15T14:02:42;4.82;;;0.80;;
25015;SDS011;13029;46.286;7.488;2023-05-15T14:05:09;3.00;;;0.80;;
25015;SDS011;13029;46.286;7.488;2023-05-15T14:07:36;0.60;;;0.60;;
25015;SDS011;13029;46.286;7.488;2023-05-15T14:10:01;3.65;;;0.80;;
25015;SDS011;13029;46.286;7.488;2023-05-15T14:12:27;1.67;;;0.70;;
25015;SDS011;13029;46.286;7.488;2023-05-15T14:14:52;2.97;;;1.10;;
25015;SDS011;13029;46.286;7.488;2023-05-15T14:17:18;0.70;;;0.60;;
25015;SDS011;13029;46.286;7.488;2023-05-15T14:19:43;6.70;;;1.52;;
25015;SDS011;13029;46.286;7.488;2023-05-15T14:22:08;1.10;;;0.68;;
25015;SDS011;13029;46.286;7.488;2023-05-15T14:24:34;0.80;;;0.80;;
25015;SDS011;13029;46.286;7.488;2023-05-15T14:26:59;4.45;;;0.80;;
25015;SDS011;13029;46.286;7.488;2023-05-15T14:29:25;0.90;;;0.80;;
25015;SDS011;13029;46.286;7.488;2023-05-15T14:31:50;1.40;;;0.85;;
25015;SDS011;13029;46.286;7.488;2023-05-15T14:34:16;6.10;;;0.98;;
25015;SDS011;13029;46.286;7.488;2023-05-15T14:36:42;1.13;;;0.60;;
25015;SDS011;13029;46.286;7.488;2023-05-15T14:39:08;0.95;;;0.70;;
25015;SDS011;13029;46.286;7.488;2023-05-15T14:41:33;0.68;;;0.60;;
25015;SDS011;13029;46.286;7.488;2023-05-15T14:43:58;3.60;;;0.90;;
25015;SDS011;13029;46.286;7.488;2023-05-15T14:46:23;0.73;;;0.68;;
25015;SDS011;13029;46.286;7.488;2023-05-15T14:48:49;2.30;;;0.55;;
25015;SDS011;13029;46.286;7.488;2023-05-15T14:51:15;0.60;;;0.60;;
25015;SDS011;13029;46.286;7.488;2023-05-15T14:53:41;0.50;;;0.50;;
25015;SDS011;13029;46.286;7.488;2023-05-15T14:56:06;0.60;;;0.52;;
25015;SDS011;13029;46.286;7.488;2023-05-15T14:58:31;4.72;;;1.08;;
25015;SDS011;13029;46.286;7.488;2023-05-15T15:00:57;1.48;;;0.77;;
25015;SDS011;13029;46.286;7.488;2023-05-15T15:03:22;2.55;;;0.85;;
25015;SDS011;13029;46.286;7.488;2023-05-15T15:05:48;4.45;;;0.70;;
25015;SDS011;13029;46.286;7.488;2023-05-15T15:08:15;3.53;;;0.93;;
25015;SDS011;13029;46.286;7.488;2023-05-15T15:10:41;0.88;;;0.75;;
25015;SDS011;13029;46.286;7.488;2023-05-15T15:13:07;1.92;;;0.63;;
25015;SDS011;13029;46.286;7.488;2023-05-15T15:15:34;2.00;;;0.90;;
25015;SDS011;13029;46.286;7.488;2023-05-15T15:17:59;5.68;;;0.60;;
25015;SDS011;13029;46.286;7.488;2023-05-15T15:20:25;0.52;;;0.52;;
25015;SDS011;13029;46.286;7.488;2023-05-15T15:22:51;0.70;;;0.65;;
25015;SDS011;13029;46.286;7.488;2023-05-15T15:25:17;1.02;;;0.50;;
25015;SDS011;13029;46.286;7.488;2023-05-15T15:27:42;0.90;;;0.60;;